createdAt,value
2023-03-04T00:01:16.476Z,-1.07
2023-03-04T00:03:43.065Z,-1.04
2023-03-04T00:06:10.104Z,-1.02
2023-03-04T00:08:36.625Z,-1.02
2023-03-04T00:11:03.203Z,-1.04
2023-03-04T00:13:29.728Z,-1.02
2023-03-04T00:15:56.292Z,-1.02
2023-03-04T00:18:23.005Z,-1.01
2023-03-04T00:20:50.619Z,-1.00
2023-03-04T00:23:17.670Z,-0.97
2023-03-04T00:25:44.359Z,-0.97
2023-03-04T00:28:10.925Z,-0.93
2023-03-04T00:30:37.491Z,-0.93
2023-03-04T00:33:03.977Z,-0.93
2023-03-04T00:35:30.566Z,-0.92
2023-03-04T00:37:57.151Z,-0.89
2023-03-04T00:40:23.768Z,-0.88
2023-03-04T00:42:50.292Z,-0.82
2023-03-04T00:45:16.952Z,-0.84
2023-03-04T00:47:43.493Z,-0.84
2023-03-04T00:50:10.723Z,-0.83
2023-03-04T00:52:37.310Z,-0.82
2023-03-04T00:55:04.225Z,-0.81
2023-03-04T00:57:30.701Z,-0.78
2023-03-04T00:59:57.197Z,-0.75
2023-03-04T01:02:23.764Z,-0.75
2023-03-04T01:04:50.276Z,-0.72
2023-03-04T01:07:16.757Z,-0.73
2023-03-04T01:09:43.337Z,-0.71
2023-03-04T01:12:09.821Z,-0.71
2023-03-04T01:14:36.344Z,-0.67
2023-03-04T01:17:02.970Z,-0.65
2023-03-04T01:19:29.615Z,-0.65
2023-03-04T01:21:56.097Z,-0.65
2023-03-04T01:24:22.971Z,-0.63
2023-03-04T01:26:49.492Z,-0.63
2023-03-04T01:29:16.043Z,-0.62
2023-03-04T01:31:42.549Z,-0.60
2023-03-04T01:34:10.032Z,-0.58
2023-03-04T01:36:36.678Z,-0.57
2023-03-04T01:39:04.274Z,-0.57
2023-03-04T01:41:31.023Z,-0.53
2023-03-04T01:44:01.037Z,-0.52
2023-03-04T01:46:27.767Z,-0.50
2023-03-04T01:48:54.741Z,-0.49
2023-03-04T01:51:22.024Z,-0.46
2023-03-04T01:53:52.026Z,-0.46
2023-03-04T01:56:37.303Z,-0.43
2023-03-04T01:59:12.756Z,-0.43
2023-03-04T02:01:41.138Z,-0.41
2023-03-04T02:04:08.248Z,-0.39
2023-03-04T02:06:37.359Z,-0.38
2023-03-04T02:09:04.886Z,-0.35
2023-03-04T02:11:31.806Z,-0.38
2023-03-04T02:13:58.665Z,-0.36
2023-03-04T02:16:26.295Z,-0.34
2023-03-04T02:18:53.297Z,-0.35
2023-03-04T02:21:29.292Z,-0.36
2023-03-04T02:24:15.492Z,-0.35
2023-03-04T02:26:43.804Z,-0.35
2023-03-04T02:29:12.765Z,-0.37
2023-03-04T02:31:41.854Z,-0.35
2023-03-04T02:34:15.212Z,-0.32
2023-03-04T02:36:43.667Z,-0.30
2023-03-04T02:39:21.680Z,-0.31
2023-03-04T02:41:49.766Z,-0.31
2023-03-04T02:44:21.843Z,-0.33
2023-03-04T02:46:50.447Z,-0.32
2023-03-04T02:49:17.840Z,-0.33
2023-03-04T02:51:44.540Z,-0.31
2023-03-04T02:54:19.782Z,-0.31
2023-03-04T02:56:51.656Z,-0.30
2023-03-04T02:59:18.803Z,-0.30
2023-03-04T03:01:45.962Z,-0.30
2023-03-04T03:04:13.173Z,-0.29
2023-03-04T03:06:40.569Z,-0.29
2023-03-04T03:09:07.637Z,-0.28
2023-03-04T03:11:34.942Z,-0.28
2023-03-04T03:14:02.014Z,-0.29
2023-03-04T03:16:28.701Z,-0.30
2023-03-04T03:18:55.186Z,-0.31
2023-03-04T03:21:21.686Z,-0.29
2023-03-04T03:23:48.193Z,-0.28
2023-03-04T03:26:14.909Z,-0.28
2023-03-04T03:28:41.534Z,-0.26
2023-03-04T03:31:08.186Z,-0.28
2023-03-04T03:33:34.757Z,-0.28
2023-03-04T03:36:01.680Z,-0.29
2023-03-04T03:38:28.419Z,-0.27
2023-03-04T03:40:55.054Z,-0.26
2023-03-04T03:43:21.556Z,-0.23
2023-03-04T03:45:48.131Z,-0.22
2023-03-04T03:48:14.794Z,-0.24
2023-03-04T03:50:41.350Z,-0.23
2023-03-04T03:53:07.852Z,-0.24
2023-03-04T03:55:34.406Z,-0.23
2023-03-04T03:58:00.945Z,-0.20
2023-03-04T04:00:27.438Z,-0.22
2023-03-04T04:02:58.543Z,-0.20
2023-03-04T04:05:25.042Z,-0.20
2023-03-04T04:07:53.970Z,-0.21
2023-03-04T04:10:21.599Z,-0.16
2023-03-04T04:12:48.277Z,-0.17
2023-03-04T04:15:14.794Z,-0.15
2023-03-04T04:17:41.410Z,-0.16
2023-03-04T04:20:08.882Z,-0.15
2023-03-04T04:22:37.671Z,-0.16
2023-03-04T04:25:05.163Z,-0.14
2023-03-04T04:27:31.814Z,-0.12
2023-03-04T04:29:58.332Z,-0.13
2023-03-04T04:32:24.886Z,-0.11
2023-03-04T04:34:51.450Z,-0.09
2023-03-04T04:37:18.094Z,-0.07
2023-03-04T04:39:44.640Z,-0.03
2023-03-04T04:42:11.858Z,0.00
2023-03-04T04:44:39.153Z,-0.02
2023-03-04T04:47:07.347Z,-0.01
2023-03-04T04:49:34.270Z,-0.02
2023-03-04T04:52:01.224Z,0.02
2023-03-04T04:54:27.712Z,0.00
2023-03-04T04:56:54.385Z,-0.01
2023-03-04T04:59:20.932Z,0.04
2023-03-04T05:01:47.794Z,0.04
2023-03-04T05:04:14.851Z,0.04
2023-03-04T05:06:41.459Z,0.06
2023-03-04T05:09:08.152Z,0.07
2023-03-04T05:11:35.020Z,0.09
2023-03-04T05:14:01.939Z,0.08
2023-03-04T05:16:28.476Z,0.09
2023-03-04T05:18:55.062Z,0.10
2023-03-04T05:21:21.560Z,0.11
2023-03-04T05:23:48.114Z,0.12
2023-03-04T05:26:16.900Z,0.17
2023-03-04T05:28:43.464Z,0.17
2023-03-04T05:31:11.139Z,0.20
2023-03-04T05:33:38.103Z,0.21
2023-03-04T05:36:06.594Z,0.22
2023-03-04T05:38:33.699Z,0.25
2023-03-04T05:41:05.961Z,0.30
2023-03-04T05:43:35.595Z,0.29
2023-03-04T05:46:04.109Z,0.32
2023-03-04T05:48:30.948Z,0.33
2023-03-04T05:50:59.521Z,0.33
2023-03-04T05:53:26.561Z,0.36
2023-03-04T05:55:53.224Z,0.37
2023-03-04T05:58:20.627Z,0.40
2023-03-04T06:00:47.508Z,0.40
2023-03-04T06:03:15.862Z,0.44
2023-03-04T06:05:43.888Z,0.44
2023-03-04T06:08:11.582Z,0.42
2023-03-04T06:10:40.183Z,0.46
2023-03-04T06:13:07.208Z,0.46
2023-03-04T06:15:34.061Z,0.47
2023-03-04T06:18:00.589Z,0.50
2023-03-04T06:20:27.254Z,0.56
2023-03-04T06:22:53.882Z,0.54
2023-03-04T06:25:20.479Z,0.54
2023-03-04T06:27:47.399Z,0.56
2023-03-04T06:30:15.151Z,0.56
2023-03-04T06:32:44.401Z,0.57
2023-03-04T06:35:12.012Z,0.58
2023-03-04T06:37:38.643Z,0.59
2023-03-04T06:40:05.932Z,0.62
2023-03-04T06:42:35.201Z,0.58
2023-03-04T06:45:02.075Z,0.65
2023-03-04T06:47:28.975Z,0.62
2023-03-04T06:49:55.592Z,0.61
2023-03-04T06:52:22.481Z,0.60
2023-03-04T06:54:49.045Z,0.60
2023-03-04T06:57:15.889Z,0.60
2023-03-04T06:59:42.436Z,0.64
2023-03-04T07:02:12.538Z,0.65
2023-03-04T07:04:39.715Z,0.75
2023-03-04T07:07:06.409Z,0.79
2023-03-04T07:09:33.025Z,0.80
2023-03-04T07:11:59.511Z,0.80
2023-03-04T07:14:27.873Z,0.80
2023-03-04T07:16:54.798Z,0.81
2023-03-04T07:19:21.745Z,0.83
2023-03-04T07:21:48.343Z,0.88
2023-03-04T07:24:14.948Z,0.85
2023-03-04T07:26:41.456Z,0.93
2023-03-04T07:29:08.000Z,0.97
2023-03-04T07:31:35.315Z,0.94
2023-03-04T07:34:04.709Z,0.99
2023-03-04T07:36:31.447Z,1.07
2023-03-04T07:38:57.968Z,1.07
2023-03-04T07:41:26.615Z,1.07
2023-03-04T07:43:53.153Z,1.08
2023-03-04T07:46:19.884Z,1.05
2023-03-04T07:48:46.750Z,1.09
2023-03-04T07:51:16.054Z,1.12
2023-03-04T07:53:44.706Z,1.07
2023-03-04T07:56:14.107Z,1.13
2023-03-04T07:58:40.712Z,1.08
2023-03-04T08:01:16.477Z,1.08
2023-03-04T08:03:43.136Z,1.08
2023-03-04T08:06:12.654Z,1.11
2023-03-04T08:08:39.903Z,1.08
2023-03-04T08:11:13.130Z,1.08
2023-03-04T08:13:39.911Z,1.05
2023-03-04T08:16:07.096Z,1.03
2023-03-04T08:18:34.354Z,1.07
2023-03-04T08:21:00.889Z,1.08
2023-03-04T08:23:27.398Z,1.10
2023-03-04T08:25:54.091Z,1.13
2023-03-04T08:28:20.690Z,1.15
2023-03-04T08:30:53.012Z,1.21
2023-03-04T08:33:19.696Z,1.24
2023-03-04T08:35:46.173Z,1.25
2023-03-04T08:38:12.699Z,1.25
2023-03-04T08:40:39.227Z,1.30
2023-03-04T08:43:05.711Z,1.42
2023-03-04T08:45:32.214Z,1.40
2023-03-04T08:47:58.940Z,1.37
2023-03-04T08:50:27.573Z,1.34
2023-03-04T08:52:54.292Z,1.42
2023-03-04T08:55:20.902Z,1.50
2023-03-04T08:57:47.441Z,1.58
2023-03-04T09:00:14.433Z,1.58
2023-03-04T09:02:41.051Z,1.59
2023-03-04T09:05:08.384Z,1.62
2023-03-04T09:07:34.909Z,1.70
2023-03-04T09:10:01.474Z,1.74
2023-03-04T09:12:28.014Z,1.71
2023-03-04T09:15:09.875Z,1.77
2023-03-04T09:17:37.083Z,1.84
2023-03-04T09:20:04.848Z,1.85
2023-03-04T09:22:31.638Z,1.93
2023-03-04T09:24:58.136Z,2.01
2023-03-04T09:27:27.423Z,2.03
2023-03-04T09:29:53.985Z,2.03
2023-03-04T09:32:20.598Z,2.10
2023-03-04T09:34:47.113Z,2.12
2023-03-04T09:37:13.725Z,2.09
2023-03-04T09:39:40.342Z,2.06
2023-03-04T09:42:09.658Z,2.13
2023-03-04T09:44:46.227Z,2.12
2023-03-04T09:47:18.027Z,2.12
2023-03-04T09:49:48.927Z,2.10
2023-03-04T09:52:21.183Z,2.05
2023-03-04T09:55:18.140Z,2.04
2023-03-04T09:58:03.069Z,2.06
2023-03-04T10:00:39.194Z,2.04
2023-03-04T10:03:10.892Z,2.09
2023-03-04T10:05:57.668Z,2.16
2023-03-04T10:08:27.512Z,2.25
2023-03-04T10:10:56.897Z,2.16
2023-03-04T10:13:33.706Z,2.12
2023-03-04T10:16:02.217Z,2.11
2023-03-04T10:18:36.206Z,2.15
2023-03-04T10:21:24.209Z,2.29
2023-03-04T10:23:51.098Z,2.39
2023-03-04T10:26:21.018Z,2.50
2023-03-04T10:28:48.863Z,2.53
2023-03-04T10:31:35.436Z,2.61
2023-03-04T10:34:04.325Z,2.65
2023-03-04T10:36:30.760Z,2.78
2023-03-04T10:39:00.138Z,2.72
2023-03-04T10:41:29.315Z,2.69
2023-03-04T10:44:16.495Z,2.64
2023-03-04T10:46:48.598Z,2.63
2023-03-04T10:49:19.636Z,2.65
2023-03-04T10:52:03.012Z,2.65
2023-03-04T10:54:42.837Z,2.73
2023-03-04T10:57:23.263Z,2.86
2023-03-04T10:59:59.113Z,2.91
2023-03-04T11:02:36.542Z,2.93
2023-03-04T11:05:14.982Z,3.08
2023-03-04T11:07:56.276Z,3.15
2023-03-04T11:10:40.488Z,3.20
2023-03-04T11:13:21.162Z,3.34
2023-03-04T11:15:57.865Z,3.40
2023-03-04T11:18:41.273Z,3.38
2023-03-04T11:21:09.232Z,3.29
2023-03-04T11:23:50.564Z,3.22
2023-03-04T11:26:21.841Z,3.17
2023-03-04T11:29:13.144Z,3.24
2023-03-04T11:31:47.533Z,3.48
2023-03-04T11:34:39.013Z,3.65
2023-03-04T11:37:28.852Z,3.78
2023-03-04T11:40:02.322Z,4.10
2023-03-04T11:42:40.746Z,4.33
2023-03-04T11:45:34.089Z,4.37
2023-03-04T11:48:12.876Z,4.20
2023-03-04T11:50:53.332Z,4.32
2023-03-04T11:53:29.376Z,4.29
2023-03-04T11:56:20.570Z,3.98
2023-03-04T11:58:59.062Z,3.93
2023-03-04T12:01:38.491Z,3.94
2023-03-04T12:04:28.754Z,4.09
2023-03-04T12:07:40.589Z,4.23
2023-03-04T12:10:33.437Z,4.51
2023-03-04T12:13:21.651Z,4.40
2023-03-04T12:15:48.172Z,4.26
2023-03-04T12:18:38.830Z,4.21
2023-03-04T12:21:31.579Z,4.45
2023-03-04T12:24:18.180Z,4.71
2023-03-04T12:26:51.335Z,4.98
2023-03-04T12:29:37.904Z,5.08
2023-03-04T12:32:19.477Z,5.16
2023-03-04T12:35:14.922Z,4.96
2023-03-04T12:37:49.179Z,4.72
2023-03-04T12:40:36.582Z,4.53
2023-03-04T12:43:21.789Z,4.32
2023-03-04T12:46:26.038Z,4.20
2023-03-04T12:49:00.558Z,4.37
2023-03-04T12:51:49.759Z,4.37
2023-03-04T12:54:33.092Z,4.44
2023-03-04T12:57:12.823Z,4.41
2023-03-04T13:00:17.849Z,4.30
2023-03-04T13:03:04.222Z,4.09
2023-03-04T13:06:03.962Z,3.99
2023-03-04T13:09:16.141Z,3.78
2023-03-04T13:11:47.423Z,3.88
2023-03-04T13:14:19.914Z,4.02
2023-03-04T13:17:01.878Z,4.08
2023-03-04T13:19:43.893Z,4.16
2023-03-04T13:22:40.879Z,4.15
2023-03-04T13:25:52.379Z,4.06
2023-03-04T13:28:22.538Z,3.92
2023-03-04T13:30:52.156Z,3.88
2023-03-04T13:33:18.599Z,3.98
2023-03-04T13:35:54.509Z,4.21
2023-03-04T13:38:23.012Z,4.27
2023-03-04T13:41:15.417Z,4.35
2023-03-04T13:43:56.519Z,4.37
2023-03-04T13:46:24.147Z,4.44
2023-03-04T13:48:50.811Z,4.25
2023-03-04T13:51:30.480Z,4.45
2023-03-04T13:54:00.300Z,4.74
2023-03-04T13:56:36.612Z,4.86
2023-03-04T13:59:09.483Z,4.78
2023-03-04T14:01:43.475Z,4.79
2023-03-04T14:04:17.418Z,4.80
2023-03-04T14:06:49.101Z,4.76
2023-03-04T14:09:29.805Z,4.60
2023-03-04T14:12:14.514Z,4.74
2023-03-04T14:14:47.760Z,4.71
2023-03-04T14:17:24.031Z,4.60
2023-03-04T14:19:53.609Z,4.50
2023-03-04T14:22:21.295Z,4.54
2023-03-04T14:25:13.717Z,4.52
2023-03-04T14:27:40.496Z,4.57
2023-03-04T14:30:31.836Z,4.62
2023-03-04T14:33:08.743Z,4.57
2023-03-04T14:35:36.474Z,4.61
2023-03-04T14:38:19.141Z,4.62
2023-03-04T14:40:51.752Z,4.59
2023-03-04T14:43:21.053Z,4.65
2023-03-04T14:45:51.470Z,4.55
2023-03-04T14:48:33.584Z,4.49
2023-03-04T14:51:01.661Z,4.25
2023-03-04T14:53:30.811Z,4.01
2023-03-04T14:56:04.571Z,3.92
2023-03-04T14:58:33.675Z,3.87
2023-03-04T15:01:17.381Z,3.86
2023-03-04T15:04:00.242Z,3.84
2023-03-04T15:06:29.517Z,3.84
2023-03-04T15:08:59.073Z,3.84
2023-03-04T15:11:49.881Z,3.91
2023-03-04T15:14:44.032Z,4.01
2023-03-04T15:17:24.388Z,3.96
2023-03-04T15:20:05.999Z,3.97
2023-03-04T15:22:45.101Z,3.91
2023-03-04T15:25:15.569Z,3.82
2023-03-04T15:27:43.996Z,3.79
2023-03-04T15:30:17.889Z,3.79
2023-03-04T15:32:44.470Z,3.76
2023-03-04T15:35:15.840Z,3.77
2023-03-04T15:37:43.318Z,3.77
2023-03-04T15:40:27.725Z,3.83
2023-03-04T15:42:56.524Z,3.86
2023-03-04T15:45:24.485Z,3.88
2023-03-04T15:47:51.473Z,3.87
2023-03-04T15:50:19.254Z,3.84
2023-03-04T15:52:46.173Z,3.85
2023-03-04T15:55:21.150Z,3.83
2023-03-04T15:57:55.636Z,3.83
2023-03-04T16:00:22.726Z,3.83
2023-03-04T16:02:49.383Z,3.83
2023-03-04T16:05:16.349Z,3.81
2023-03-04T16:07:46.195Z,3.78
2023-03-04T16:10:21.237Z,3.77
2023-03-04T16:12:48.210Z,3.76
2023-03-04T16:15:20.908Z,3.73
2023-03-04T16:17:48.148Z,3.71
2023-03-04T16:20:17.931Z,3.69
2023-03-04T16:22:46.695Z,3.67
2023-03-04T16:25:15.313Z,3.65
2023-03-04T16:27:42.301Z,3.65
2023-03-04T16:30:15.612Z,3.63
2023-03-04T16:32:42.310Z,3.58
2023-03-04T16:35:09.655Z,3.60
2023-03-04T16:37:36.713Z,3.56
2023-03-04T16:40:05.123Z,3.54
2023-03-04T16:42:31.751Z,3.53
2023-03-04T16:44:58.337Z,3.55
2023-03-04T16:47:24.918Z,3.52
2023-03-04T16:49:52.463Z,3.54
2023-03-04T16:52:36.928Z,3.50
2023-03-04T16:55:03.660Z,3.49
2023-03-04T16:57:31.615Z,3.45
2023-03-04T16:59:58.445Z,3.43
2023-03-04T17:02:27.058Z,3.43
2023-03-04T17:04:53.592Z,3.41
2023-03-04T17:07:20.116Z,3.39
2023-03-04T17:09:46.632Z,3.34
2023-03-04T17:12:13.165Z,3.30
2023-03-04T17:14:40.031Z,3.33
2023-03-04T17:17:07.400Z,3.29
2023-03-04T17:19:34.134Z,3.26
2023-03-04T17:22:01.798Z,3.25
2023-03-04T17:24:28.786Z,3.20
2023-03-04T17:26:55.408Z,3.21
2023-03-04T17:29:22.234Z,3.19
2023-03-04T17:31:48.796Z,3.18
2023-03-04T17:34:15.429Z,3.17
2023-03-04T17:36:42.078Z,3.13
2023-03-04T17:39:08.734Z,3.11
2023-03-04T17:41:36.332Z,3.10
2023-03-04T17:44:03.257Z,3.10
2023-03-04T17:46:30.192Z,3.05
2023-03-04T17:49:01.881Z,3.02
2023-03-04T17:51:33.636Z,3.01
2023-03-04T17:54:01.458Z,3.01
2023-03-04T17:56:31.785Z,3.03
2023-03-04T17:59:00.360Z,2.99
2023-03-04T18:01:27.943Z,2.99
2023-03-04T18:03:55.575Z,2.98
2023-03-04T18:06:24.228Z,2.96
2023-03-04T18:08:52.591Z,2.95
2023-03-04T18:11:24.510Z,2.94
2023-03-04T18:13:53.034Z,2.92
2023-03-04T18:16:24.095Z,2.91
2023-03-04T18:18:51.192Z,2.90
2023-03-04T18:21:19.313Z,2.90
2023-03-04T18:23:46.681Z,2.90
2023-03-04T18:26:13.295Z,2.89
2023-03-04T18:28:40.031Z,2.88
2023-03-04T18:31:06.646Z,2.88
2023-03-04T18:33:34.092Z,2.85
2023-03-04T18:36:02.973Z,2.88
2023-03-04T18:38:30.149Z,2.85
2023-03-04T18:41:04.593Z,2.85
2023-03-04T18:43:31.103Z,2.86
2023-03-04T18:46:00.544Z,2.85
2023-03-04T18:48:27.305Z,2.84
2023-03-04T18:50:53.991Z,2.82
2023-03-04T18:53:20.481Z,2.83
2023-03-04T18:55:46.998Z,2.81
2023-03-04T18:58:13.555Z,2.83
2023-03-04T19:00:40.140Z,2.82
2023-03-04T19:03:11.890Z,2.82
2023-03-04T19:05:39.345Z,2.80
2023-03-04T19:08:06.876Z,2.79
2023-03-04T19:10:33.671Z,2.78
2023-03-04T19:13:00.251Z,2.73
2023-03-04T19:15:27.019Z,2.65
2023-03-04T19:17:53.560Z,2.56
2023-03-04T19:20:20.197Z,2.51
2023-03-04T19:22:46.836Z,2.48
2023-03-04T19:25:13.608Z,2.43
2023-03-04T19:27:40.429Z,2.39
2023-03-04T19:30:07.944Z,2.34
2023-03-04T19:32:34.619Z,2.36
2023-03-04T19:35:01.328Z,2.34
2023-03-04T19:37:27.948Z,2.30
2023-03-04T19:39:56.097Z,2.28
2023-03-04T19:42:23.765Z,2.26
2023-03-04T19:44:50.548Z,2.20
2023-03-04T19:47:17.101Z,2.14
2023-03-04T19:49:43.648Z,2.13
2023-03-04T19:52:10.643Z,2.10
2023-03-04T19:54:37.262Z,2.09
2023-03-04T19:57:03.951Z,2.07
2023-03-04T19:59:30.469Z,2.07
2023-03-04T20:01:57.003Z,2.06
2023-03-04T20:04:23.587Z,2.03
2023-03-04T20:06:51.342Z,2.00
2023-03-04T20:09:19.635Z,1.99
2023-03-04T20:11:57.749Z,1.97
2023-03-04T20:14:26.484Z,1.96
2023-03-04T20:16:53.087Z,1.95
2023-03-04T20:19:19.641Z,1.91
2023-03-04T20:21:46.133Z,1.87
2023-03-04T20:24:15.179Z,1.85
2023-03-04T20:26:41.903Z,1.83
2023-03-04T20:29:08.431Z,1.81
2023-03-04T20:31:39.099Z,1.76
2023-03-04T20:34:07.243Z,1.77
2023-03-04T20:36:34.798Z,1.70
2023-03-04T20:39:02.753Z,1.65
2023-03-04T20:41:32.789Z,1.62
2023-03-04T20:43:59.319Z,1.62
2023-03-04T20:46:37.014Z,1.60
2023-03-04T20:49:13.756Z,1.58
2023-03-04T20:51:40.535Z,1.55
2023-03-04T20:54:07.595Z,1.51
2023-03-04T20:56:35.202Z,1.50
2023-03-04T20:59:04.477Z,1.47
2023-03-04T21:01:32.088Z,1.45
2023-03-04T21:04:01.236Z,1.42
2023-03-04T21:06:29.271Z,1.41
2023-03-04T21:08:59.700Z,1.39
2023-03-04T21:11:26.186Z,1.37
2023-03-04T21:13:57.993Z,1.35
2023-03-04T21:16:26.865Z,1.32
2023-03-04T21:18:56.050Z,1.31
2023-03-04T21:21:25.223Z,1.27
2023-03-04T21:23:56.235Z,1.26
2023-03-04T21:26:23.539Z,1.25
2023-03-04T21:28:51.257Z,1.22
2023-03-04T21:31:21.243Z,1.20
2023-03-04T21:33:48.432Z,1.22
2023-03-04T21:36:15.046Z,1.17
2023-03-04T21:38:43.335Z,1.14
2023-03-04T21:41:17.409Z,1.14
2023-03-04T21:43:44.524Z,1.13
2023-03-04T21:46:12.949Z,1.13
2023-03-04T21:48:39.980Z,1.11
2023-03-04T21:51:09.098Z,1.08
2023-03-04T21:53:36.580Z,1.08
2023-03-04T21:56:04.961Z,1.10
2023-03-04T21:58:32.070Z,1.09
2023-03-04T22:00:59.249Z,1.08
2023-03-04T22:03:27.462Z,1.08
2023-03-04T22:05:54.072Z,1.04
2023-03-04T22:08:21.373Z,1.02
2023-03-04T22:10:48.347Z,1.01
2023-03-04T22:13:15.937Z,0.98
2023-03-04T22:15:44.433Z,0.96
2023-03-04T22:18:14.160Z,0.96
2023-03-04T22:20:43.324Z,0.94
2023-03-04T22:23:10.421Z,0.93
2023-03-04T22:25:39.633Z,0.91
2023-03-04T22:28:06.663Z,0.92
2023-03-04T22:30:35.297Z,0.91
2023-03-04T22:33:03.250Z,0.88
2023-03-04T22:35:30.082Z,0.85
2023-03-04T22:37:56.750Z,0.84
2023-03-04T22:40:23.391Z,0.82
2023-03-04T22:42:50.118Z,0.80
2023-03-04T22:45:18.076Z,0.76
2023-03-04T22:47:49.954Z,0.75
2023-03-04T22:50:17.347Z,0.73
2023-03-04T22:52:44.162Z,0.72
2023-03-04T22:55:12.360Z,0.70
2023-03-04T22:57:38.931Z,0.72
2023-03-04T23:00:28.874Z,0.68
2023-03-04T23:02:55.777Z,0.64
2023-03-04T23:05:22.382Z,0.62
2023-03-04T23:07:51.068Z,0.58
2023-03-04T23:10:23.894Z,0.56
2023-03-04T23:12:51.560Z,0.53
2023-03-04T23:15:19.990Z,0.52
2023-03-04T23:17:47.158Z,0.50
2023-03-04T23:20:17.685Z,0.49
2023-03-04T23:22:45.739Z,0.45
2023-03-04T23:25:13.409Z,0.44
2023-03-04T23:27:41.119Z,0.41
2023-03-04T23:30:16.833Z,0.35
2023-03-04T23:32:44.313Z,0.32
2023-03-04T23:35:11.219Z,0.26
2023-03-04T23:37:37.731Z,0.24
2023-03-04T23:40:04.761Z,0.23
2023-03-04T23:42:31.261Z,0.23
2023-03-04T23:44:57.774Z,0.20
2023-03-04T23:47:24.328Z,0.17
2023-03-04T23:49:50.826Z,0.15
2023-03-04T23:52:17.332Z,0.17
2023-03-04T23:54:43.840Z,0.15
2023-03-04T23:57:10.409Z,0.15
2023-03-04T23:59:38.372Z,0.15
